createdAt,value
2019-04-03T00:00:13.247Z,97191.38
2019-04-03T00:02:42.591Z,97194.41
2019-04-03T00:05:11.641Z,97193.72
2019-04-03T00:07:40.710Z,97201.30
2019-04-03T00:10:10.069Z,97200.58
2019-04-03T00:12:41.060Z,97198.11
2019-04-03T00:15:13.240Z,97191.14
2019-04-03T00:17:41.526Z,97181.98
2019-04-03T00:20:10.892Z,97193.23
2019-04-03T00:22:40.177Z,97190.45
2019-04-03T00:25:09.521Z,97194.56
2019-04-03T00:27:38.997Z,97187.99
2019-04-03T00:30:08.361Z,97193.30
2019-04-03T00:32:37.454Z,97192.30
2019-04-03T00:35:07.558Z,97194.77
2019-04-03T00:37:36.626Z,97190.88
2019-04-03T00:40:06.816Z,97191.65
2019-04-03T00:42:35.889Z,97195.77
2019-04-03T00:45:06.414Z,97191.38
2019-04-03T00:47:35.503Z,97194.57
2019-04-03T00:50:05.805Z,97187.95
2019-04-03T00:52:36.035Z,97192.99
2019-04-03T00:55:06.441Z,97188.45
2019-04-03T00:57:35.975Z,97188.11
2019-04-03T01:00:15.371Z,97179.80
2019-04-03T01:02:44.441Z,97181.87
2019-04-03T01:05:13.540Z,97181.14
2019-04-03T01:07:42.635Z,97184.83
2019-04-03T01:10:11.681Z,97179.80
2019-04-03T01:12:40.925Z,97178.22
2019-04-03T01:15:10.300Z,97187.03
2019-04-03T01:17:39.822Z,97184.45
2019-04-03T01:20:09.208Z,97186.30
2019-04-03T01:22:38.623Z,97181.41
2019-04-03T01:25:09.011Z,97189.34
2019-04-03T01:27:41.246Z,97183.61
2019-04-03T01:30:09.633Z,97171.63
2019-04-03T01:32:38.683Z,97166.75
2019-04-03T01:35:09.516Z,97166.59
2019-04-03T01:37:39.153Z,97167.59
2019-04-03T01:40:08.211Z,97164.75
2019-04-03T01:42:37.261Z,97162.32
2019-04-03T01:45:06.320Z,97168.79
2019-04-03T01:47:35.416Z,97162.55
2019-04-03T01:50:05.963Z,97162.91
2019-04-03T01:52:35.008Z,97158.66
2019-04-03T01:55:05.380Z,97150.94
2019-04-03T01:57:36.244Z,97155.55
2019-04-03T02:00:08.330Z,97150.94
2019-04-03T02:02:38.726Z,97148.47
2019-04-03T02:05:08.489Z,97150.28
2019-04-03T02:07:37.891Z,97143.77
2019-04-03T02:10:18.442Z,97141.73
2019-04-03T02:12:48.835Z,97132.15
2019-04-03T02:15:21.206Z,97127.61
2019-04-03T02:17:49.750Z,97127.38
2019-04-03T02:20:19.132Z,97123.22
2019-04-03T02:22:48.186Z,97118.33
2019-04-03T02:25:17.388Z,97121.38
2019-04-03T02:27:46.657Z,97120.10
2019-04-03T02:30:15.713Z,97106.56
2019-04-03T02:32:44.767Z,97099.98
2019-04-03T02:35:13.827Z,97101.05
2019-04-03T02:37:43.107Z,97095.16
2019-04-03T02:40:12.309Z,97091.90
2019-04-03T02:42:42.432Z,97091.63
2019-04-03T02:45:12.032Z,97091.25
2019-04-03T02:47:41.433Z,97096.02
2019-04-03T02:50:13.930Z,97103.37
2019-04-03T02:52:41.572Z,97098.13
2019-04-03T02:55:11.000Z,97091.25
2019-04-03T02:57:40.584Z,97095.28
2019-04-03T03:00:09.696Z,97095.16
2019-04-03T03:02:38.747Z,97100.05
2019-04-03T03:05:08.068Z,97103.59
2019-04-03T03:07:37.471Z,97094.44
2019-04-03T03:10:07.548Z,97090.90
2019-04-03T03:12:38.017Z,97085.01
2019-04-03T03:15:10.699Z,97087.70
2019-04-03T03:17:38.724Z,97086.51
2019-04-03T03:20:08.131Z,97090.63
2019-04-03T03:22:38.136Z,97099.59
2019-04-03T03:25:07.564Z,97094.59
2019-04-03T03:27:40.766Z,97094.44
2019-04-03T03:30:30.567Z,97092.75
2019-04-03T03:32:38.921Z,97091.02
2019-04-03T03:35:14.476Z,97090.32
2019-04-03T03:37:39.475Z,97090.17
2019-04-03T03:40:08.610Z,97087.48
2019-04-03T03:42:37.663Z,97096.06
2019-04-03T03:45:07.015Z,97085.94
2019-04-03T03:47:37.198Z,97086.28
2019-04-03T03:50:07.317Z,97089.82
2019-04-03T03:52:39.071Z,97089.48
2019-04-03T03:55:08.506Z,97085.56
2019-04-03T03:57:39.691Z,97087.13
2019-04-03T04:00:09.419Z,97083.24
2019-04-03T04:02:43.736Z,97084.59
2019-04-03T04:05:12.175Z,97083.71
2019-04-03T04:07:41.763Z,97083.59
2019-04-03T04:10:11.018Z,97087.75
2019-04-03T04:12:41.876Z,97082.36
2019-04-03T04:15:11.852Z,97083.24
2019-04-03T04:17:41.435Z,97083.81
2019-04-03T04:20:11.220Z,97085.94
2019-04-03T04:22:40.592Z,97084.36
2019-04-03T04:25:09.784Z,97088.98
2019-04-03T04:27:39.550Z,97081.02
2019-04-03T04:30:09.046Z,97082.36
2019-04-03T04:32:38.446Z,97084.44
2019-04-03T04:35:10.707Z,97081.74
2019-04-03T04:37:40.363Z,97080.39
2019-04-03T04:40:09.531Z,97078.05
2019-04-03T04:42:38.926Z,97085.62
2019-04-03T04:45:07.994Z,97089.20
2019-04-03T04:47:37.039Z,97089.55
2019-04-03T04:50:06.094Z,97092.37
2019-04-03T04:52:35.162Z,97088.48
2019-04-03T04:55:04.766Z,97083.94
2019-04-03T04:57:33.835Z,97086.12
2019-04-03T05:00:04.029Z,97087.00
2019-04-03T05:02:33.076Z,97086.23
2019-04-03T05:05:02.163Z,97083.86
2019-04-03T05:07:31.529Z,97083.11
